x

Central Caribbean - 210 Nm Sse Of Kingston, Jamaica (42058) Wave Buoy

8:50 - Tue 1st Sep 2015 All times are EST. -5 hours from GMT.

  • Sig Wave height 5.6ft
  • Swell Direction
  • Peak Period 7s
  • Average Period 5s
  • Wind
    22mph, 25mph gusts
  • Sea Temp 84°f
  • Aire Temp 84°f
  • Sea Pressure 1013.7mb
  • Central Caribbean - 210 Nm Sse Of Kingston, Jamaica
  • Central Caribbean - 210 Nm Sse Of Kingston, Jamaica

More Historic Weather Station data

Upgrade to MSW Pro to gain access to the past 30 days of data for over 8000 Wavebouys and Weather Stations around the globe.

Join Pro

Comparision Forecast

View Surf forecast
   
mar 09/01 8:50 5.5ft 7s 5s 22 25 mph 1013.7mb 84f 84f
7:50 5.5ft 8s 5s 22 27 mph 1013mb 84f 84f
6:50 5.5ft 8s 5s 20 25 mph 1012.5mb 84f 84f
5:50 5.5ft 7s 5s 25 27 mph 1011.6mb 84f 84f
4:50 5.5ft 7s 5s 20 25 mph 1011.5mb 84f 84f
3:50 5.5ft 8s 5s 22 25 mph 1011.6mb 84f 84f
2:50 6.5ft 8s 5s 20 22 mph 1012.1mb 84f 84f
1:50 6.5ft 8s 5s 20 25 mph 1012.5mb 84f 84f
12:50 6.5ft 7s 5s 22 27 mph 1013.1mb 84f 84f
11:50 7ft 8s 5s 22 27 mph 1013.8mb 84f 84f
10:50 6.5ft 7s 5s 22 27 mph 1014.1mb 84f 84f
9:50 6.5ft 8s 5s 25 27 mph 1014mb 84f 84f
8:50 7ft 8s 5s 22 27 mph 1014mb 84f 84f
7:50 7ft 8s 5s 22 27 mph 1013.7mb 84f 84f
6:50 7ft 8s 6s 22 27 mph 1013.1mb 84f 84f
5:50 7ft 8s 5s 25 29 mph 1012.6mb 84f 84f
4:50 8ft 8s 5s 25 31 mph 1012.3mb 84f 84f
3:50 7.5ft 7s 5s 25 29 mph 1011.8mb 84f 84f
2:50 7.5ft 8s 6s 27 29 mph 1011.9mb 84f 84f
1:50 6.5ft 8s 5s 25 29 mph 1012.4mb 84f 84f
12:50 7ft 8s 5s 27 29 mph 1013mb 84f 84f
lun 08/31 11:50 7ft 8s 5s 25 29 mph 1013.6mb 84f 84f
10:50 6.5ft 8s 5s 25 29 mph 1014mb 84f 84f
9:50 6ft 8s 5s 25 29 mph 1013.5mb 84f 84f
8:50 6ft 8s 5s 22 27 mph 1012.9mb 84f 84f
7:50 6ft 8s 5s 25 27 mph 1012.4mb 84f 84f
6:50 6ft 8s 5s 22 25 mph 1011.7mb 84f 84f
5:50 6.5ft 8s 5s 22 27 mph 1011.2mb 84f 84f
4:50 7ft 8s 5s 20 25 mph 1011.4mb 84f 84f
3:50 7ft 8s 5s 20 25 mph 1011.6mb 84f 84f
2:50 7ft 8s 5s 20 25 mph 1011.9mb 84f 84f
1:50 6.5ft 8s 5s 20 25 mph 1012.3mb 84f 84f
12:50 6.5ft 8s 5s 25 27 mph 1012.9mb 84f 84f
11:50 6.5ft 8s 5s 22 27 mph 1013.2mb 84f 84f
10:50 6.5ft 8s 5s 22 27 mph 1013.7mb 84f 84f
9:50 7ft 8s 5s 22 27 mph 1013.5mb 84f 84f
8:50 6.5ft 8s 5s 22 27 mph 1013.2mb 84f 84f
7:50 6.5ft 7s 5s 25 29 mph 1012.6mb 84f 84f
6:50 6ft 8s 5s 25 29 mph 1011.9mb 84f 84f
5:50 6.5ft 7s 5s 22 25 mph 1011.7mb 84f 84f
4:50 6ft 8s 5s 22 27 mph 1011.8mb 84f 84f
3:50 7ft 8s 5s 22 29 mph 1011.4mb 84f 84f
2:50 7ft 7s 5s 22 29 mph 1011.5mb 84f 84f
1:50 6.5ft 7s 5s 22 27 mph 1011.9mb 84f 84f
12:50 7ft 8s 5s 25 29 mph 1012.2mb 84f 84f
dom 08/30 11:50 7ft 8s 6s 22 27 mph 1012.8mb 84f 84f
10:50 6.5ft 8s 5s 22 25 mph 1012.7mb 84f 84f
9:50 7ft 7s 5s 25 27 mph 1012.3mb 84f 84f
8:50 7ft 7s 5s 22 27 mph 1012mb 84f 84f
7:50 7ft 8s 6s 20 22 mph 1011.6mb 84f 84f
6:50 7.5ft 8s 6s 22 25 mph 1010.7mb 84f 84f
5:50 7ft 8s 5s 22 27 mph 1010.3mb 84f 84f
4:50 8.5ft 8s 6s 20 22 mph 1010.5mb 84f 84f
3:50 8.5ft 8s 6s 22 29 mph 1010.9mb 84f 84f
2:50 9ft 8s 6s 22 29 mph 1011.1mb 84f 84f
1:50 8ft 8s 6s 22 25 mph 1011.4mb 84f 84f
12:50 9ft 8s 6s 25 29 mph 1011.9mb 84f 84f
11:50 9ft 8s 6s 20 25 mph 1012.3mb 84f 84f
10:50 8.5ft 8s 6s 25 29 mph 1012.4mb 84f 85f
9:50 9ft 8s 6s 25 31 mph 1012.3mb 84f 85f
8:50 8.5ft 7s 6s 25 31 mph 1012.3mb 84f 84f
7:50 10ft 8s 6s 25 31 mph 1011.6mb 84f 84f
6:50 10ft 8s 6s 27 31 mph 1010.9mb 84f 84f
5:50 9ft 7s 6s 29 34 mph 1010.3mb 84f 84f
4:50 9ft 7s 6s 29 31 mph 1009.6mb 84f 84f
3:50 9ft 8s 6s 25 31 mph 1009.5mb 84f 84f
2:50 10ft 8s 6s 25 31 mph 1009.6mb 84f 84f
1:50 9.5ft 9s 6s 27 31 mph 1009.9mb 84f 84f
12:50 10ft 8s 6s 25 31 mph 1010.7mb 84f 84f
sáb 08/29 11:50 10ft 7s 6s 25 31 mph 1011.2mb 84f 84f
10:50 10ft 8s 6s 25 34 mph 1011.5mb 84f 84f
9:50 10ft 9s 6s 25 31 mph 1011.3mb 84f 85f
8:50 10ft 9s 6s 29 36 mph 1010.5mb 84f 85f
7:50 10ft 9s 6s 27 36 mph 1010.1mb 84f 85f
6:50 10.5ft 9s 6s 27 34 mph 1009.4mb 84f 84f
5:50 9.5ft 9s 6s 25 29 mph 1009.2mb 84f 85f
4:50 10ft 10s 6s 27 31 mph 1009.1mb 84f 85f
3:50 11ft 8s 6s 27 34 mph 1008.9mb 84f 85f
2:50 10ft 8s 6s 27 31 mph 1009.3mb 84f 85f
1:50 10ft 8s 6s 25 34 mph 1010.2mb 84f 85f
12:50 10ft 10s 6s 27 31 mph 1010.9mb 84f 85f
11:50 8.5ft 11s 6s 27 31 mph 1010.9mb 84f 85f
10:50 8ft 7s 6s 25 29 mph 1011.4mb 84f 85f
9:50 8ft 11s 6s 27 31 mph 1012mb 84f 85f
8:50 7.5ft 11s 6s 25 31 mph 1012.1mb 84f 85f
7:50 6ft 12s 5s 25 29 mph 1011.8mb 84f 85f
6:50 5ft 5s 5s 22 27 mph 1011.2mb 84f 85f
5:50 5ft 5s 5s 22 27 mph 1010.6mb 84f 84f
4:50 4.5ft 8s 5s 22 27 mph 1010.8mb 84f 83f
3:50 4ft 7s 4s 20 25 mph 1010.3mb 84f 84f